createdAt,value
2018-05-12T00:00:59.310Z,101060.55
2018-05-12T00:03:26.709Z,101063.02
2018-05-12T00:05:54.305Z,101059.23
2018-05-12T00:08:21.609Z,101057.38
2018-05-12T00:10:49.019Z,101049.30
2018-05-12T00:13:16.470Z,101053.02
2018-05-12T00:15:43.859Z,101051.84
2018-05-12T00:18:11.350Z,101049.43
2018-05-12T00:20:38.753Z,101036.20
2018-05-12T00:23:06.146Z,101038.64
2018-05-12T00:25:33.531Z,101040.16
2018-05-12T00:28:00.918Z,101038.27
2018-05-12T00:30:28.313Z,101038.06
2018-05-12T00:32:55.777Z,101031.95
2018-05-12T00:35:23.181Z,101035.28
2018-05-12T00:37:50.574Z,101038.06
2018-05-12T00:40:18.055Z,101031.66
2018-05-12T00:42:45.429Z,101031.30
2018-05-12T00:45:12.862Z,101035.92
2018-05-12T00:47:40.315Z,101027.83
2018-05-12T00:50:07.714Z,101031.02
2018-05-12T00:52:35.113Z,101022.81
2018-05-12T00:55:02.502Z,101021.88
2018-05-12T00:57:29.929Z,101024.06
2018-05-12T00:59:57.335Z,101020.93
2018-05-12T01:02:24.748Z,101017.17
2018-05-12T01:04:52.169Z,101014.69
2018-05-12T01:07:19.667Z,101020.20
2018-05-12T01:09:47.048Z,101011.16
2018-05-12T01:12:14.474Z,101010.00
2018-05-12T01:14:41.948Z,101011.39
2018-05-12T01:17:09.385Z,101012.94
2018-05-12T01:19:36.861Z,101019.21
2018-05-12T01:22:04.243Z,101002.93
2018-05-12T01:24:31.657Z,101002.59
2018-05-12T01:26:59.118Z,101010.84
2018-05-12T01:29:26.503Z,101024.84
2018-05-12T01:31:53.930Z,101032.44
2018-05-12T01:34:21.318Z,101020.28
2018-05-12T01:36:48.724Z,101020.25
2018-05-12T01:39:16.117Z,101014.26
2018-05-12T01:41:43.537Z,101017.77
2018-05-12T01:44:10.995Z,101015.17
2018-05-12T01:46:38.401Z,101017.39
2018-05-12T01:49:05.793Z,101013.31
2018-05-12T01:51:33.197Z,101021.39
2018-05-12T01:54:00.596Z,101019.59
2018-05-12T01:56:28.002Z,101020.16
2018-05-12T01:58:55.389Z,101021.20
2018-05-12T02:01:22.893Z,101019.31
2018-05-12T02:03:50.284Z,101022.45
2018-05-12T02:06:17.681Z,101017.30
2018-05-12T02:08:45.074Z,101017.60
2018-05-12T02:11:12.484Z,101015.93
2018-05-12T02:13:39.905Z,101013.99
2018-05-12T02:16:07.303Z,101021.58
2018-05-12T02:18:34.781Z,101028.27
2018-05-12T02:21:02.236Z,101021.75
2018-05-12T02:23:29.697Z,101018.37
2018-05-12T02:25:57.105Z,101022.93
2018-05-12T02:28:24.538Z,101018.03
2018-05-12T02:30:51.987Z,101019.39
2018-05-12T02:33:19.369Z,101022.36
2018-05-12T02:35:46.791Z,101024.59
2018-05-12T02:38:14.235Z,101014.41
2018-05-12T02:40:41.689Z,101013.63
2018-05-12T02:43:09.160Z,101023.30
2018-05-12T02:45:36.602Z,101019.89
2018-05-12T02:48:03.991Z,101007.84
2018-05-12T02:50:31.414Z,101017.88
2018-05-12T02:52:58.808Z,101022.09
2018-05-12T02:55:26.280Z,101021.36
2018-05-12T02:57:53.721Z,101021.55
2018-05-12T03:00:21.193Z,101014.53
2018-05-12T03:02:48.584Z,101007.27
2018-05-12T03:05:16.116Z,101005.58
2018-05-12T03:07:43.518Z,101004.30
2018-05-12T03:10:11.028Z,101009.09
2018-05-12T03:12:38.423Z,101014.55
2018-05-12T03:15:05.849Z,101013.98
2018-05-12T03:17:33.296Z,101008.34
2018-05-12T03:20:00.748Z,101010.48
2018-05-12T03:22:28.153Z,101009.40
2018-05-12T03:24:55.642Z,101006.16
2018-05-12T03:27:23.042Z,101007.30
2018-05-12T03:29:50.465Z,101008.82
2018-05-12T03:32:17.925Z,101010.39
2018-05-12T03:34:45.505Z,101015.12
2018-05-12T03:37:12.903Z,101013.97
2018-05-12T03:39:40.297Z,101006.75
2018-05-12T03:42:07.798Z,101003.06
2018-05-12T03:44:35.192Z,101009.97
2018-05-12T03:47:03.362Z,101009.44
2018-05-12T03:49:30.762Z,101012.59
2018-05-12T03:51:58.169Z,101013.44
2018-05-12T03:54:25.588Z,101015.75
2018-05-12T03:56:53.030Z,101012.30
2018-05-12T03:59:20.437Z,101014.23
2018-05-12T04:01:47.937Z,101019.13
2018-05-12T04:04:27.153Z,101013.76
2018-05-12T04:07:06.589Z,101015.38
2018-05-12T04:09:42.559Z,101024.17
2018-05-12T04:12:29.761Z,101018.22
2018-05-12T04:14:57.612Z,101023.39
2018-05-12T04:17:25.085Z,101020.59
2018-05-12T04:19:52.913Z,101018.92
2018-05-12T04:22:20.316Z,101016.37
2018-05-12T04:24:47.711Z,101014.23
2018-05-12T04:27:15.112Z,101019.81
2018-05-12T04:29:42.533Z,101022.63
2018-05-12T04:32:09.945Z,101025.83
2018-05-12T04:34:37.454Z,101017.53
2018-05-12T04:37:04.929Z,101024.42
2018-05-12T04:39:32.326Z,101023.02
2018-05-12T04:41:59.752Z,101019.17
2018-05-12T04:44:27.143Z,101014.30
2018-05-12T04:46:54.549Z,101019.77
2018-05-12T04:49:21.996Z,101011.67
2018-05-12T04:51:49.449Z,101018.35
2018-05-12T04:54:16.923Z,101015.52
2018-05-12T04:56:44.305Z,101017.14
2018-05-12T04:59:11.842Z,101019.17
2018-05-12T05:01:39.590Z,101025.20
2018-05-12T05:04:07.045Z,101023.78
2018-05-12T05:06:34.496Z,101024.02
2018-05-12T05:09:01.910Z,101024.89
2018-05-12T05:11:29.300Z,101022.31
2018-05-12T05:13:56.709Z,101028.58
2018-05-12T05:16:24.120Z,101025.27
2018-05-12T05:18:51.520Z,101033.81
2018-05-12T05:21:19.028Z,101032.36
2018-05-12T05:23:46.421Z,101032.52
2018-05-12T05:26:13.813Z,101032.39
2018-05-12T05:28:41.302Z,101038.17
2018-05-12T05:31:08.778Z,101038.18
2018-05-12T05:33:36.199Z,101038.82
2018-05-12T05:36:03.687Z,101037.80
2018-05-12T05:38:31.087Z,101036.33
2018-05-12T05:40:58.589Z,101039.66
2018-05-12T05:43:26.075Z,101029.79
2018-05-12T05:45:53.469Z,101038.68
2018-05-12T05:48:20.872Z,101038.34
2018-05-12T05:50:48.737Z,101036.42
2018-05-12T05:53:16.141Z,101037.39
2018-05-12T05:55:43.533Z,101037.56
2018-05-12T05:58:11.004Z,101041.55
2018-05-12T06:00:38.456Z,101037.64
2018-05-12T06:03:05.921Z,101046.89
2018-05-12T06:05:33.320Z,101042.43
2018-05-12T06:08:00.729Z,101045.89
2018-05-12T06:10:28.129Z,101047.32
2018-05-12T06:12:55.555Z,101043.25
2018-05-12T06:15:22.990Z,101043.17
2018-05-12T06:17:50.392Z,101040.81
2018-05-12T06:20:17.817Z,101045.05
2018-05-12T06:22:45.270Z,101046.59
2018-05-12T06:25:12.660Z,101049.70
2018-05-12T06:27:40.065Z,101052.03
2018-05-12T06:30:07.537Z,101045.62
2018-05-12T06:32:34.957Z,101051.54
2018-05-12T06:35:02.344Z,101050.22
2018-05-12T06:37:29.797Z,101052.52
2018-05-12T06:39:57.201Z,101044.41
2018-05-12T06:42:24.609Z,101046.05
2018-05-12T06:44:52.021Z,101047.52
2018-05-12T06:47:19.422Z,101050.77
2018-05-12T06:49:46.873Z,101042.17
2018-05-12T06:52:14.328Z,101053.45
2018-05-12T06:54:41.729Z,101056.70
2018-05-12T06:57:09.121Z,101054.35
2018-05-12T06:59:36.611Z,101054.69
2018-05-12T07:02:03.996Z,101054.58
2018-05-12T07:04:31.405Z,101048.41
2018-05-12T07:06:58.793Z,101053.17
2018-05-12T07:09:26.190Z,101055.72
2018-05-12T07:11:53.577Z,101056.42
2018-05-12T07:14:20.965Z,101063.58
2018-05-12T07:16:48.356Z,101057.56
2018-05-12T07:19:15.766Z,101053.53
2018-05-12T07:21:43.188Z,101059.14
2018-05-12T07:24:11.572Z,101056.42
2018-05-12T07:26:38.970Z,101059.39
2018-05-12T07:29:06.361Z,101050.41
2018-05-12T07:31:33.848Z,101048.98
2018-05-12T07:34:01.237Z,101050.48
2018-05-12T07:36:28.656Z,101050.34
2018-05-12T07:38:56.122Z,101053.80
2018-05-12T07:41:23.505Z,101050.63
2018-05-12T07:43:50.903Z,101053.22
2018-05-12T07:46:18.406Z,101051.20
2018-05-12T07:48:45.795Z,101052.17
2018-05-12T07:51:13.185Z,101041.32
2018-05-12T07:53:40.674Z,101044.48
2018-05-12T07:56:08.045Z,101046.12
2018-05-12T07:58:35.470Z,101045.00
2018-05-12T08:01:02.879Z,101043.48
2018-05-12T08:03:30.298Z,101037.45
2018-05-12T08:05:57.755Z,101036.70
2018-05-12T08:08:25.137Z,101036.24
2018-05-12T08:10:52.525Z,101035.25
2018-05-12T08:13:19.919Z,101031.18
2018-05-12T08:15:47.308Z,101038.38
2018-05-12T08:18:14.716Z,101037.59
2018-05-12T08:20:42.113Z,101046.39
2018-05-12T08:23:09.506Z,101044.56
2018-05-12T08:25:36.885Z,101040.91
2018-05-12T08:28:04.291Z,101034.00
2018-05-12T08:30:31.698Z,101033.87
2018-05-12T08:32:59.149Z,101035.42
2018-05-12T08:35:26.546Z,101038.44
2018-05-12T08:37:53.978Z,101032.09
2018-05-12T08:40:21.485Z,101030.91
2018-05-12T08:42:48.781Z,101024.63
2018-05-12T08:45:16.176Z,101025.58
2018-05-12T08:47:43.604Z,101016.31
2018-05-12T08:50:11.055Z,101016.93
2018-05-12T08:52:38.457Z,101015.67
2018-05-12T08:55:05.913Z,101013.58
2018-05-12T08:57:33.302Z,101017.61
2018-05-12T09:00:00.698Z,101011.02
2018-05-12T09:02:28.105Z,101008.19
2018-05-12T09:04:55.501Z,101007.23
2018-05-12T09:07:22.881Z,101006.92
2018-05-12T09:09:50.289Z,101004.05
2018-05-12T09:12:17.676Z,101002.36
2018-05-12T09:14:45.073Z,100998.29
2018-05-12T09:17:12.561Z,100997.09
2018-05-12T09:19:39.972Z,100990.97
2018-05-12T09:22:07.365Z,100996.36
2018-05-12T09:24:34.832Z,100994.77
2018-05-12T09:27:02.292Z,100991.29
2018-05-12T09:29:29.689Z,100988.76
2018-05-12T09:31:57.109Z,100984.89
2018-05-12T09:34:24.505Z,100985.19
2018-05-12T09:36:51.900Z,100975.63
2018-05-12T09:39:19.288Z,100984.76
2018-05-12T09:41:46.677Z,100984.75
2018-05-12T09:44:14.069Z,100992.29
2018-05-12T09:46:41.457Z,100993.11
2018-05-12T09:49:08.854Z,100988.69
2018-05-12T09:51:36.350Z,100989.73
2018-05-12T09:54:03.810Z,100983.06
2018-05-12T09:56:31.207Z,100985.83
2018-05-12T09:58:58.601Z,100983.96
2018-05-12T10:01:25.987Z,100987.57
2018-05-12T10:03:53.380Z,100990.26
2018-05-12T10:06:20.776Z,100983.00
2018-05-12T10:08:48.162Z,100982.94
2018-05-12T10:11:15.592Z,100985.78
2018-05-12T10:13:42.985Z,100982.31
2018-05-12T10:16:10.373Z,100980.19
2018-05-12T10:18:37.757Z,100988.44
2018-05-12T10:21:05.156Z,100971.20
2018-05-12T10:23:32.577Z,100968.67
2018-05-12T10:26:00.038Z,100976.09
2018-05-12T10:28:27.499Z,100969.52
2018-05-12T10:30:54.888Z,100969.41
2018-05-12T10:33:22.274Z,100967.47
2018-05-12T10:35:49.765Z,100960.66
2018-05-12T10:38:17.153Z,100969.29
2018-05-12T10:40:44.606Z,100966.64
2018-05-12T10:43:11.995Z,100960.72
2018-05-12T10:45:39.385Z,100959.22
2018-05-12T10:48:06.965Z,100957.22
2018-05-12T10:50:34.356Z,100967.56
2018-05-12T10:53:01.752Z,100962.07
2018-05-12T10:55:29.221Z,100961.81
2018-05-12T10:57:56.606Z,100953.48
2018-05-12T11:00:24.002Z,100956.59
2018-05-12T11:02:51.492Z,100951.69
2018-05-12T11:05:18.892Z,100960.11
2018-05-12T11:07:46.304Z,100949.75
2018-05-12T11:10:13.757Z,100942.45
2018-05-12T11:12:41.214Z,100943.56
2018-05-12T11:15:08.669Z,100935.66
2018-05-12T11:17:36.061Z,100930.01
2018-05-12T11:20:03.455Z,100929.56
2018-05-12T11:22:31.004Z,100923.88
2018-05-12T11:24:58.403Z,100928.08
2018-05-12T11:27:25.867Z,100919.03
2018-05-12T11:29:53.273Z,100920.40
2018-05-12T11:32:20.661Z,100911.03
2018-05-12T11:34:48.125Z,100922.56
2018-05-12T11:37:15.514Z,100918.69
2018-05-12T11:39:42.909Z,100908.00
2018-05-12T11:42:10.297Z,100905.25
2018-05-12T11:44:37.821Z,100898.77
2018-05-12T11:47:05.253Z,100904.16
2018-05-12T11:49:32.661Z,100902.84
2018-05-12T11:52:00.125Z,100893.89
2018-05-12T11:54:27.521Z,100893.55
2018-05-12T11:56:54.917Z,100892.81
2018-05-12T11:59:22.389Z,100887.14
2018-05-12T12:01:49.878Z,100886.95
2018-05-12T12:04:17.314Z,100879.54
2018-05-12T12:06:44.808Z,100879.36
2018-05-12T12:09:12.213Z,100887.64
2018-05-12T12:11:39.615Z,100884.78
2018-05-12T12:14:07.001Z,100879.12
2018-05-12T12:16:34.434Z,100877.91
2018-05-12T12:19:01.793Z,100873.66
2018-05-12T12:21:29.201Z,100877.13
2018-05-12T12:23:56.621Z,100869.49
2018-05-12T12:26:24.033Z,100870.22
2018-05-12T12:28:51.429Z,100863.19
2018-05-12T12:31:18.834Z,100861.38
2018-05-12T12:33:46.304Z,100864.05
2018-05-12T12:36:13.702Z,100862.95
2018-05-12T12:38:41.093Z,100853.16
2018-05-12T12:41:08.497Z,100853.15
2018-05-12T12:43:35.882Z,100850.16
2018-05-12T12:46:03.301Z,100849.69
2018-05-12T12:48:30.742Z,100846.70
2018-05-12T12:50:58.153Z,100848.73
2018-05-12T12:53:25.557Z,100846.79
2018-05-12T12:55:52.949Z,100845.72
2018-05-12T12:58:20.382Z,100840.69
2018-05-12T13:00:47.791Z,100846.80
2018-05-12T13:03:15.177Z,100840.84
2018-05-12T13:05:42.575Z,100837.19
2018-05-12T13:08:09.962Z,100837.63
2018-05-12T13:10:37.354Z,100836.42
2018-05-12T13:13:04.737Z,100830.64
2018-05-12T13:15:32.158Z,100838.19
2018-05-12T13:17:59.585Z,100835.77
2018-05-12T13:20:27.003Z,100827.84
2018-05-12T13:22:54.395Z,100820.77
2018-05-12T13:25:21.801Z,100822.95
2018-05-12T13:27:49.201Z,100816.48
2018-05-12T13:30:16.597Z,100820.44
2018-05-12T13:32:43.997Z,100813.00
2018-05-12T13:35:11.455Z,100819.25
2018-05-12T13:37:38.841Z,100810.34
2018-05-12T13:40:06.237Z,100802.52
2018-05-12T13:42:33.629Z,100812.22
2018-05-12T13:45:01.036Z,100806.11
2018-05-12T13:47:28.499Z,100801.09
2018-05-12T13:49:55.974Z,100799.81
2018-05-12T13:52:23.357Z,100798.11
2018-05-12T13:54:50.824Z,100788.84
2018-05-12T13:57:18.285Z,100795.81
2018-05-12T13:59:46.385Z,100792.02
2018-05-12T14:02:13.782Z,100782.59
2018-05-12T14:04:41.280Z,100790.89
2018-05-12T14:07:08.660Z,100786.23
2018-05-12T14:09:36.069Z,100782.33
2018-05-12T14:12:03.612Z,100775.34
2018-05-12T14:14:31.000Z,100778.03
2018-05-12T14:16:58.415Z,100779.50
2018-05-12T14:19:25.784Z,100780.00
2018-05-12T14:21:53.237Z,100776.78
2018-05-12T14:24:20.619Z,100779.26
2018-05-12T14:26:48.005Z,100772.92
2018-05-12T14:29:15.393Z,100775.17
2018-05-12T14:31:42.806Z,100769.55
2018-05-12T14:34:10.255Z,100773.05
2018-05-12T14:36:37.653Z,100779.00
2018-05-12T14:39:05.081Z,100775.34
2018-05-12T14:41:32.484Z,100766.10
2018-05-12T14:43:59.894Z,100777.16
2018-05-12T14:46:27.281Z,100770.02
2018-05-12T14:48:54.689Z,100774.01
2018-05-12T14:51:22.094Z,100770.38
2018-05-12T14:53:49.474Z,100767.14
2018-05-12T14:56:16.881Z,100774.62
2018-05-12T14:58:44.265Z,100776.28
2018-05-12T15:01:11.671Z,100772.23
2018-05-12T15:03:39.143Z,100774.88
2018-05-12T15:06:06.590Z,100776.59
2018-05-12T15:08:34.049Z,100771.45
2018-05-12T15:11:01.452Z,100775.13
2018-05-12T15:13:28.906Z,100767.18
2018-05-12T15:15:56.306Z,100762.22
2018-05-12T15:18:23.706Z,100760.59
2018-05-12T15:20:51.184Z,100759.23
2018-05-12T15:23:18.581Z,100755.45
2018-05-12T15:25:45.990Z,100746.36
2018-05-12T15:28:13.389Z,100746.91
2018-05-12T15:30:40.799Z,100742.90
2018-05-12T15:33:08.201Z,100745.98
2018-05-12T15:35:35.631Z,100740.72
2018-05-12T15:38:03.012Z,100733.42
2018-05-12T15:40:30.418Z,100736.13
2018-05-12T15:42:57.921Z,100733.58
2018-05-12T15:45:25.349Z,100735.25
2018-05-12T15:47:52.745Z,100740.41
2018-05-12T15:50:20.156Z,100732.10
2018-05-12T15:52:47.645Z,100730.33
2018-05-12T15:55:15.077Z,100728.89
2018-05-12T15:57:42.588Z,100732.41
2018-05-12T16:00:09.977Z,100728.45
2018-05-12T16:02:37.479Z,100727.07
2018-05-12T16:05:04.871Z,100724.77
2018-05-12T16:07:32.278Z,100722.10
2018-05-12T16:09:59.685Z,100718.74
2018-05-12T16:12:27.098Z,100712.98
2018-05-12T16:14:54.485Z,100709.03
2018-05-12T16:17:21.906Z,100712.92
2018-05-12T16:19:49.357Z,100710.12
2018-05-12T16:22:16.752Z,100709.45
2018-05-12T16:24:44.183Z,100712.20
2018-05-12T16:27:11.592Z,100713.09
2018-05-12T16:29:39.081Z,100704.31
2018-05-12T16:32:06.540Z,100699.53
2018-05-12T16:34:33.997Z,100704.39
2018-05-12T16:37:01.442Z,100705.02
2018-05-12T16:39:28.829Z,100697.94
2018-05-12T16:41:56.220Z,100698.77
2018-05-12T16:44:23.615Z,100692.85
2018-05-12T16:46:51.085Z,100693.78
2018-05-12T16:49:18.545Z,100700.14
2018-05-12T16:51:45.956Z,100701.83
2018-05-12T16:54:13.357Z,100702.67
2018-05-12T16:56:40.741Z,100693.03
2018-05-12T16:59:08.188Z,100688.22
2018-05-12T17:01:35.629Z,100688.83
2018-05-12T17:04:03.025Z,100696.85
2018-05-12T17:06:30.442Z,100697.56
2018-05-12T17:08:57.889Z,100690.55
2018-05-12T17:11:25.301Z,100691.30
2018-05-12T17:13:52.734Z,100688.16
2018-05-12T17:16:20.128Z,100687.44
2018-05-12T17:18:47.519Z,100683.14
2018-05-12T17:21:14.994Z,100681.05
2018-05-12T17:23:42.377Z,100680.44
2018-05-12T17:26:09.792Z,100676.45
2018-05-12T17:28:37.249Z,100676.14
2018-05-12T17:31:04.649Z,100676.97
2018-05-12T17:33:32.062Z,100682.71
2018-05-12T17:35:59.458Z,100676.63
2018-05-12T17:38:26.841Z,100672.59
2018-05-12T17:40:54.328Z,100665.58
2018-05-12T17:43:21.790Z,100667.69
2018-05-12T17:45:49.247Z,100663.81
2018-05-12T17:48:16.641Z,100670.95
2018-05-12T17:50:44.029Z,100664.70
2018-05-12T17:53:11.678Z,100660.61
2018-05-12T17:55:39.081Z,100661.53
2018-05-12T17:58:06.547Z,100667.23
2018-05-12T18:00:33.943Z,100668.69
2018-05-12T18:03:01.338Z,100667.84
2018-05-12T18:05:28.801Z,100660.40
2018-05-12T18:07:56.201Z,100655.40
2018-05-12T18:10:23.633Z,100662.48
2018-05-12T18:12:51.054Z,100661.66
2018-05-12T18:15:18.453Z,100661.80
2018-05-12T18:17:45.879Z,100661.22
2018-05-12T18:20:13.283Z,100662.12
2018-05-12T18:22:40.701Z,100661.72
2018-05-12T18:25:08.157Z,100656.17
2018-05-12T18:27:35.549Z,100661.23
2018-05-12T18:30:02.961Z,100665.59
2018-05-12T18:32:30.453Z,100657.33
2018-05-12T18:34:57.837Z,100658.45
2018-05-12T18:37:25.266Z,100661.75
2018-05-12T18:39:52.649Z,100661.15
2018-05-12T18:42:20.045Z,100659.23
2018-05-12T18:44:47.425Z,100659.23
2018-05-12T18:47:14.865Z,100660.48
2018-05-12T18:49:42.269Z,100656.70
2018-05-12T18:52:09.677Z,100661.28
2018-05-12T18:54:37.073Z,100661.08
2018-05-12T18:57:04.481Z,100663.78
2018-05-12T18:59:31.940Z,100665.80
2018-05-12T19:01:59.342Z,100671.84
2018-05-12T19:04:26.730Z,100669.56
2018-05-12T19:06:54.218Z,100672.12
2018-05-12T19:09:21.675Z,100672.70
2018-05-12T19:11:49.180Z,100675.14
2018-05-12T19:14:16.715Z,100675.55
2018-05-12T19:16:44.174Z,100673.77
2018-05-12T19:19:11.570Z,100673.31
2018-05-12T19:21:38.963Z,100679.40
2018-05-12T19:24:06.350Z,100679.55
2018-05-12T19:26:33.773Z,100682.05
2018-05-12T19:29:01.309Z,100683.31
2018-05-12T19:31:28.736Z,100687.61
2018-05-12T19:33:56.255Z,100687.25
2018-05-12T19:36:23.658Z,100685.12
2018-05-12T19:38:51.081Z,100688.56
2018-05-12T19:41:18.525Z,100685.52
2018-05-12T19:43:46.065Z,100683.38
2018-05-12T19:46:13.451Z,100684.23
2018-05-12T19:48:40.905Z,100685.47
2018-05-12T19:51:08.286Z,100679.73
2018-05-12T19:53:35.701Z,100674.69
2018-05-12T19:56:03.157Z,100678.47
2018-05-12T19:58:30.604Z,100675.92
2018-05-12T20:00:58.015Z,100678.41
2018-05-12T20:03:25.405Z,100677.95
2018-05-12T20:05:52.882Z,100677.15
2018-05-12T20:08:20.357Z,100678.35
2018-05-12T20:10:47.797Z,100672.95
2018-05-12T20:13:15.341Z,100675.06
2018-05-12T20:15:42.664Z,100675.34
2018-05-12T20:18:10.079Z,100675.50
2018-05-12T20:20:37.494Z,100671.47
2018-05-12T20:23:05.043Z,100675.37
2018-05-12T20:25:32.450Z,100684.00
2018-05-12T20:27:59.908Z,100680.26
2018-05-12T20:30:27.360Z,100680.33
2018-05-12T20:32:54.829Z,100680.16
2018-05-12T20:35:22.244Z,100679.33
2018-05-12T20:37:49.745Z,100677.17
2018-05-12T20:40:17.134Z,100678.27
2018-05-12T20:42:44.624Z,100675.53
2018-05-12T20:45:12.015Z,100678.55
2018-05-12T20:47:39.413Z,100676.73
2018-05-12T20:50:06.811Z,100683.94
2018-05-12T20:52:34.233Z,100672.47
2018-05-12T20:55:01.630Z,100678.39
2018-05-12T20:57:29.117Z,100674.69
2018-05-12T20:59:56.655Z,100676.47
2018-05-12T21:02:24.052Z,100679.73
2018-05-12T21:04:51.448Z,100677.05
2018-05-12T21:07:18.854Z,100680.99
2018-05-12T21:09:46.269Z,100673.86
2018-05-12T21:12:13.668Z,100669.55
2018-05-12T21:14:41.086Z,100666.67
2018-05-12T21:17:08.563Z,100668.43
2018-05-12T21:19:36.006Z,100669.64
2018-05-12T21:22:03.393Z,100667.30
2018-05-12T21:24:30.808Z,100666.09
2018-05-12T21:26:59.005Z,100671.10
2018-05-12T21:29:26.416Z,100665.39
2018-05-12T21:31:53.825Z,100669.63
2018-05-12T21:34:21.251Z,100667.52
2018-05-12T21:36:48.655Z,100665.84
2018-05-12T21:39:16.037Z,100666.59
2018-05-12T21:41:43.427Z,100663.84
2018-05-12T21:44:10.829Z,100669.36
2018-05-12T21:46:38.250Z,100668.31
2018-05-12T21:49:05.696Z,100664.64
2018-05-12T21:51:33.092Z,100666.81
2018-05-12T21:54:00.586Z,100664.93
2018-05-12T21:56:28.005Z,100662.59
2018-05-12T21:58:55.425Z,100660.76
2018-05-12T22:01:22.801Z,100664.97
2018-05-12T22:03:50.210Z,100664.22
2018-05-12T22:06:17.617Z,100658.29
2018-05-12T22:08:45.005Z,100659.66
2018-05-12T22:11:12.467Z,100657.13
2018-05-12T22:13:39.926Z,100658.04
2018-05-12T22:16:07.320Z,100652.61
2018-05-12T22:18:34.776Z,100656.50
2018-05-12T22:21:02.116Z,100655.70
2018-05-12T22:23:29.521Z,100653.32
2018-05-12T22:25:56.904Z,100651.07
2018-05-12T22:28:24.406Z,100648.48
2018-05-12T22:30:51.857Z,100651.91
2018-05-12T22:33:19.256Z,100648.66
2018-05-12T22:35:46.680Z,100648.45
2018-05-12T22:38:14.073Z,100652.04
2018-05-12T22:40:41.472Z,100643.73
2018-05-12T22:43:08.955Z,100643.03
2018-05-12T22:45:36.474Z,100640.22
2018-05-12T22:48:03.881Z,100639.67
2018-05-12T22:50:31.532Z,100639.26
2018-05-12T22:52:59.017Z,100635.46
2018-05-12T22:55:26.452Z,100634.17
2018-05-12T22:57:53.901Z,100631.38
2018-05-12T23:00:22.078Z,100631.37
2018-05-12T23:02:49.469Z,100629.07
2018-05-12T23:05:16.860Z,100624.61
2018-05-12T23:07:44.253Z,100625.89
2018-05-12T23:10:11.689Z,100623.63
2018-05-12T23:12:39.058Z,100629.25
2018-05-12T23:15:06.464Z,100622.58
2018-05-12T23:17:33.898Z,100619.33
2018-05-12T23:20:01.372Z,100616.82
2018-05-12T23:22:28.756Z,100621.80
2018-05-12T23:24:56.343Z,100608.61
2018-05-12T23:27:23.697Z,100612.38
2018-05-12T23:29:51.105Z,100608.38
2018-05-12T23:32:18.594Z,100607.95
2018-05-12T23:34:46.082Z,100608.38
2018-05-12T23:37:14.438Z,100603.94
2018-05-12T23:39:41.922Z,100608.91
2018-05-12T23:42:09.329Z,100606.19
2018-05-12T23:44:36.741Z,100607.33
2018-05-12T23:47:04.153Z,100600.52
2018-05-12T23:49:31.629Z,100594.17
2018-05-12T23:51:59.121Z,100599.59
2018-05-12T23:54:26.979Z,100594.33
2018-05-12T23:56:54.440Z,100595.59
2018-05-12T23:59:21.841Z,100593.11
